Pagrindinis puslapis
METAR-TAF:

METAR-TAF

Oro uostai :

Gardinas, Baltarusija

platuma: 53-36-06N, ilguma: 024-03-18E, Aukštis: 135 m

Dabartinis oras

Ataskaita buvo paskelbta 7 valandos ir 40 minutes, ne 16:00 UTC
Vėjas 12 kt iš Vakarų/Pietvakarių su gūsio iki 17 kt
Temperatūra 19°C
Drėgmė 21%
Slėgis 1027 hPa
Matomumas 10 km arba daugiau
nėra debesų žemiau 1500 m ir nėra kamuolinių lietaus debesų

METAR: UMMG 071600Z 24006G09MPS CAVOK 19/M04 Q1027 NOSIG

Laikas: 02:40 (23:40 UTC)

Prognozė

Ataskaita buvo paskelbta 9 valandos ir 38 minutes, ne 14:02 UTC
Prognozė galioja nuo 07 metu 15 UTC su 07 metu 24 UTC
Vėjas 12 kt iš Pietvakarių su gūsio iki 21 kt
Matomumas 10 km arba daugiau
Išsisklaidę debesys ne aukštis 4000 ft
Laikinai
nuo 07 metu 15 UTC su 07 metu 17 UTC
Vėjas 17 kt iš Vakarų/Pietvakarių su gūsio iki 27 kt
Laikinai
nuo 07 metu 17 UTC su 07 metu 21 UTC
Vėjas 12 kt iš Vakarų

TAF: UMMG 071402Z 0715/0724 23006G11MPS 9999 SCT040 TEMPO 0715/0717 24009G14MPS TEMPO 0717/0721 27006MPS

Orai ataskaitas ir orų prognozės (METAR, TAF).

turimą stotys yra geltonos ir raudonos taškus žemėlapyje.

Perkelti pele per norėdami pamatyti stoties vardą.

Tada spustelėkite, norėdami matyti oro stebėjimo ir prognozės.

Norėdami pakeisti žemėlapį: spustelėkite ant žalios mygtukų su juodo kryžiaus žemyn,; žalią mygtuką su brūkšneliu, jei norite nutolinti; arba žalių rodyklių gretimoms žemėlapius.


METAR-TAF: